Portada
METAR-TAF:

METAR-TAF

Aeroports :

Aeroport de Namibe

Namibe, Angola

latitud: 15-15-40S, longitud: 12-08-50E, altitud: 64 m

Observació

L'informe es va fer fa 2 hores i 26 minuts, a les 11:00 UTC
Vent 10 kt del Oest
Temperatura 25°C
Humitat 65%
Pressió 1012 hPa
Visibilitat 10 km o més
Escasses núvols a una alçada de 2000 ft
Escasses núvols a una alçada de 2100 ft, Cumulonimbus.

METAR: FNMO 301100Z 27010KT 9999 FEW020 FEW021CB 25/18 Q1012

Hora: 14:26 (13:26 UTC)

Pronòstic

L'informe es va fer fa 2 hores i 26 minuts, a les 11:00 UTC
Pronòstic vàlid del 30 a les 12 UTC al 30 a les 24 UTC
Vent 10 kt del Sud/Sud-Oest
Visibilitat 10 km o més
Escasses núvols a una alçada de 2500 ft
Núvols disperses a una alçada de 3000 ft
Temporalment
l' 30 a les 19 UTC al 30 a les 23 UTC
Visibilitat: 8000 m
Núvols disperses a una alçada de 2000 ft

TAF: FNMO 301100Z 3012/3024 21010KT 9999 FEW025 SCT030 TEMPO 3019/3023 8000 SCT020

Observacions i pronòstics meteorològics de més de 4000 aeroports (METAR i TAF).

Les estacions disponibles són els punts grocs i vermells al mapa.

Posi el ratolí al punt desitjat per veure el nom de l'estació.

Feu clic per veure les observacions i els pronòstics meteorològics.

Per canviar el mapa: feu clic els botons verds amb una creu de color negre per apropar; al botó verd amb un guió per allunyar la imatge; o en les fletxes verdes per a mapes adjacents.


METAR-TAF: